sensor_id;sensor_type;location;lat;lon;timestamp;P1;durP1;ratioP1;P2;durP2;ratioP2
77775;SDS011;73554;43.328;6.668;2023-12-20T00:02:15;9.88;;;6.82;;
77775;SDS011;73554;43.328;6.668;2023-12-20T00:05:13;9.35;;;5.95;;
77775;SDS011;73554;43.328;6.668;2023-12-20T00:08:16;8.73;;;5.57;;
77775;SDS011;73554;43.328;6.668;2023-12-20T00:11:06;8.63;;;5.80;;
77775;SDS011;73554;43.328;6.668;2023-12-20T00:13:45;10.32;;;5.95;;
77775;SDS011;73554;43.328;6.668;2023-12-20T00:21:09;10.90;;;6.80;;
77775;SDS011;73554;43.328;6.668;2023-12-20T00:26:31;12.18;;;6.32;;
77775;SDS011;73554;43.328;6.668;2023-12-20T00:29:07;8.95;;;6.18;;
77775;SDS011;73554;43.328;6.668;2023-12-20T00:34:26;8.70;;;6.25;;
77775;SDS011;73554;43.328;6.668;2023-12-20T00:44:59;8.13;;;4.60;;
77775;SDS011;73554;43.328;6.668;2023-12-20T00:47:49;10.18;;;5.68;;
77775;SDS011;73554;43.328;6.668;2023-12-20T00:50:31;12.02;;;5.97;;
77775;SDS011;73554;43.328;6.668;2023-12-20T00:53:06;9.75;;;6.38;;
77775;SDS011;73554;43.328;6.668;2023-12-20T00:58:13;9.30;;;6.15;;
77775;SDS011;73554;43.328;6.668;2023-12-20T01:01:05;11.80;;;5.60;;
77775;SDS011;73554;43.328;6.668;2023-12-20T01:03:48;10.95;;;6.22;;
77775;SDS011;73554;43.328;6.668;2023-12-20T01:06:19;10.18;;;6.82;;
77775;SDS011;73554;43.328;6.668;2023-12-20T01:11:16;11.47;;;6.07;;
77775;SDS011;73554;43.328;6.668;2023-12-20T01:13:42;10.48;;;5.80;;
77775;SDS011;73554;43.328;6.668;2023-12-20T01:16:16;9.02;;;5.78;;
77775;SDS011;73554;43.328;6.668;2023-12-20T01:18:47;9.07;;;4.85;;
77775;SDS011;73554;43.328;6.668;2023-12-20T01:21:25;8.60;;;5.80;;
77775;SDS011;73554;43.328;6.668;2023-12-20T01:23:57;9.77;;;5.88;;
77775;SDS011;73554;43.328;6.668;2023-12-20T01:26:30;9.75;;;5.88;;
77775;SDS011;73554;43.328;6.668;2023-12-20T01:29:02;11.25;;;5.88;;
77775;SDS011;73554;43.328;6.668;2023-12-20T01:36:34;8.05;;;4.88;;
77775;SDS011;73554;43.328;6.668;2023-12-20T01:39:05;9.60;;;5.97;;
77775;SDS011;73554;43.328;6.668;2023-12-20T01:41:34;9.80;;;6.32;;
77775;SDS011;73554;43.328;6.668;2023-12-20T01:44:04;11.18;;;5.93;;
77775;SDS011;73554;43.328;6.668;2023-12-20T01:49:01;10.15;;;5.72;;
77775;SDS011;73554;43.328;6.668;2023-12-20T01:51:27;8.38;;;5.35;;
77775;SDS011;73554;43.328;6.668;2023-12-20T01:54:15;10.75;;;4.97;;
77775;SDS011;73554;43.328;6.668;2023-12-20T01:56:49;10.27;;;5.45;;
77775;SDS011;73554;43.328;6.668;2023-12-20T02:01:52;8.68;;;4.80;;
77775;SDS011;73554;43.328;6.668;2023-12-20T02:04:21;9.57;;;5.32;;
77775;SDS011;73554;43.328;6.668;2023-12-20T02:06:52;8.75;;;4.80;;
77775;SDS011;73554;43.328;6.668;2023-12-20T02:09:23;8.05;;;4.70;;
77775;SDS011;73554;43.328;6.668;2023-12-20T02:12:03;7.22;;;4.07;;
77775;SDS011;73554;43.328;6.668;2023-12-20T02:14:35;6.32;;;4.10;;
77775;SDS011;73554;43.328;6.668;2023-12-20T02:19:36;9.27;;;4.70;;
77775;SDS011;73554;43.328;6.668;2023-12-20T02:22:06;7.35;;;4.40;;
77775;SDS011;73554;43.328;6.668;2023-12-20T02:24:36;8.32;;;4.55;;
77775;SDS011;73554;43.328;6.668;2023-12-20T02:27:08;7.57;;;4.70;;
77775;SDS011;73554;43.328;6.668;2023-12-20T02:30:11;7.32;;;4.20;;
77775;SDS011;73554;43.328;6.668;2023-12-20T02:33:07;7.10;;;3.63;;
77775;SDS011;73554;43.328;6.668;2023-12-20T02:35:54;7.00;;;4.10;;
77775;SDS011;73554;43.328;6.668;2023-12-20T02:38:22;9.00;;;4.53;;
77775;SDS011;73554;43.328;6.668;2023-12-20T02:40:53;8.98;;;4.45;;
77775;SDS011;73554;43.328;6.668;2023-12-20T02:45:56;8.88;;;3.72;;
77775;SDS011;73554;43.328;6.668;2023-12-20T02:48:28;7.72;;;4.18;;
77775;SDS011;73554;43.328;6.668;2023-12-20T02:51:02;7.38;;;4.05;;
77775;SDS011;73554;43.328;6.668;2023-12-20T02:53:27;6.70;;;3.55;;
77775;SDS011;73554;43.328;6.668;2023-12-20T02:55:58;8.27;;;4.65;;
77775;SDS011;73554;43.328;6.668;2023-12-20T02:58:29;7.72;;;4.28;;
77775;SDS011;73554;43.328;6.668;2023-12-20T03:01:02;6.85;;;4.38;;
77775;SDS011;73554;43.328;6.668;2023-12-20T03:04:02;6.68;;;4.25;;
77775;SDS011;73554;43.328;6.668;2023-12-20T03:06:37;8.35;;;4.25;;
77775;SDS011;73554;43.328;6.668;2023-12-20T03:09:09;7.78;;;4.25;;
77775;SDS011;73554;43.328;6.668;2023-12-20T03:11:40;7.60;;;3.70;;
77775;SDS011;73554;43.328;6.668;2023-12-20T03:16:47;6.18;;;3.80;;
77775;SDS011;73554;43.328;6.668;2023-12-20T03:21:42;6.37;;;3.67;;
77775;SDS011;73554;43.328;6.668;2023-12-20T03:24:13;6.13;;;3.78;;
77775;SDS011;73554;43.328;6.668;2023-12-20T03:29:16;6.82;;;3.70;;
77775;SDS011;73554;43.328;6.668;2023-12-20T03:34:33;7.80;;;3.60;;
77775;SDS011;73554;43.328;6.668;2023-12-20T03:37:13;5.65;;;3.65;;
77775;SDS011;73554;43.328;6.668;2023-12-20T03:39:47;6.88;;;3.47;;
77775;SDS011;73554;43.328;6.668;2023-12-20T03:42:18;7.40;;;3.63;;
77775;SDS011;73554;43.328;6.668;2023-12-20T03:44:44;6.80;;;3.72;;
77775;SDS011;73554;43.328;6.668;2023-12-20T03:47:14;8.15;;;3.80;;
77775;SDS011;73554;43.328;6.668;2023-12-20T03:49:43;8.10;;;3.65;;
77775;SDS011;73554;43.328;6.668;2023-12-20T03:52:08;7.80;;;3.65;;
77775;SDS011;73554;43.328;6.668;2023-12-20T03:54:40;7.50;;;3.37;;
77775;SDS011;73554;43.328;6.668;2023-12-20T03:57:21;7.95;;;4.15;;
77775;SDS011;73554;43.328;6.668;2023-12-20T04:02:18;6.97;;;3.55;;
77775;SDS011;73554;43.328;6.668;2023-12-20T04:04:44;5.80;;;3.17;;
77775;SDS011;73554;43.328;6.668;2023-12-20T04:07:29;6.93;;;3.63;;
77775;SDS011;73554;43.328;6.668;2023-12-20T04:12:36;6.65;;;3.05;;
77775;SDS011;73554;43.328;6.668;2023-12-20T04:15:07;6.72;;;3.70;;
77775;SDS011;73554;43.328;6.668;2023-12-20T04:17:39;6.30;;;4.60;;
77775;SDS011;73554;43.328;6.668;2023-12-20T04:20:11;6.72;;;4.05;;
77775;SDS011;73554;43.328;6.668;2023-12-20T04:22:42;7.53;;;3.60;;
77775;SDS011;73554;43.328;6.668;2023-12-20T04:25:18;6.75;;;3.67;;
77775;SDS011;73554;43.328;6.668;2023-12-20T04:27:46;6.20;;;3.22;;
77775;SDS011;73554;43.328;6.668;2023-12-20T04:30:16;7.32;;;3.90;;
77775;SDS011;73554;43.328;6.668;2023-12-20T04:32:44;6.57;;;3.95;;
77775;SDS011;73554;43.328;6.668;2023-12-20T04:35:17;6.68;;;3.70;;
77775;SDS011;73554;43.328;6.668;2023-12-20T04:40:16;6.60;;;3.70;;
77775;SDS011;73554;43.328;6.668;2023-12-20T04:42:48;6.88;;;3.78;;
77775;SDS011;73554;43.328;6.668;2023-12-20T04:45:16;6.50;;;4.10;;
77775;SDS011;73554;43.328;6.668;2023-12-20T04:47:49;7.10;;;3.72;;
77775;SDS011;73554;43.328;6.668;2023-12-20T04:52:52;7.63;;;3.67;;
77775;SDS011;73554;43.328;6.668;2023-12-20T04:55:26;7.28;;;4.10;;
77775;SDS011;73554;43.328;6.668;2023-12-20T04:57:59;5.80;;;3.33;;
77775;SDS011;73554;43.328;6.668;2023-12-20T05:00:30;6.40;;;4.03;;
77775;SDS011;73554;43.328;6.668;2023-12-20T05:02:56;6.68;;;4.15;;
77775;SDS011;73554;43.328;6.668;2023-12-20T05:05:27;9.00;;;4.10;;
77775;SDS011;73554;43.328;6.668;2023-12-20T05:08:00;6.95;;;3.70;;
77775;SDS011;73554;43.328;6.668;2023-12-20T05:15:30;6.05;;;3.55;;
77775;SDS011;73554;43.328;6.668;2023-12-20T05:18:02;8.10;;;4.10;;
77775;SDS011;73554;43.328;6.668;2023-12-20T05:20:36;7.53;;;4.28;;
77775;SDS011;73554;43.328;6.668;2023-12-20T05:25:52;6.40;;;3.30;;
77775;SDS011;73554;43.328;6.668;2023-12-20T05:30:54;10.63;;;4.82;;
77775;SDS011;73554;43.328;6.668;2023-12-20T05:33:25;8.70;;;4.60;;
77775;SDS011;73554;43.328;6.668;2023-12-20T05:35:53;7.22;;;4.53;;
77775;SDS011;73554;43.328;6.668;2023-12-20T05:38:22;7.25;;;4.35;;
77775;SDS011;73554;43.328;6.668;2023-12-20T05:40:47;6.90;;;4.00;;
77775;SDS011;73554;43.328;6.668;2023-12-20T05:45:39;7.25;;;4.15;;
77775;SDS011;73554;43.328;6.668;2023-12-20T05:48:07;6.90;;;4.03;;
77775;SDS011;73554;43.328;6.668;2023-12-20T05:50:53;8.15;;;4.95;;
77775;SDS011;73554;43.328;6.668;2023-12-20T05:53:54;7.45;;;4.72;;
77775;SDS011;73554;43.328;6.668;2023-12-20T05:59:14;8.63;;;4.78;;
77775;SDS011;73554;43.328;6.668;2023-12-20T06:02:06;10.60;;;5.45;;
77775;SDS011;73554;43.328;6.668;2023-12-20T06:04:44;8.90;;;4.13;;
77775;SDS011;73554;43.328;6.668;2023-12-20T06:07:16;8.02;;;6.00;;
77775;SDS011;73554;43.328;6.668;2023-12-20T06:10:12;10.52;;;4.47;;
77775;SDS011;73554;43.328;6.668;2023-12-20T06:13:01;8.93;;;6.00;;
77775;SDS011;73554;43.328;6.668;2023-12-20T06:15:32;10.75;;;6.05;;
77775;SDS011;73554;43.328;6.668;2023-12-20T06:18:04;9.75;;;5.47;;
77775;SDS011;73554;43.328;6.668;2023-12-20T06:23:07;13.63;;;5.68;;
77775;SDS011;73554;43.328;6.668;2023-12-20T06:25:32;8.75;;;5.63;;
77775;SDS011;73554;43.328;6.668;2023-12-20T06:28:03;8.73;;;5.25;;
77775;SDS011;73554;43.328;6.668;2023-12-20T06:30:32;9.10;;;6.05;;
77775;SDS011;73554;43.328;6.668;2023-12-20T06:33:03;10.63;;;6.32;;
77775;SDS011;73554;43.328;6.668;2023-12-20T06:35:35;10.13;;;5.65;;
77775;SDS011;73554;43.328;6.668;2023-12-20T06:38:25;10.65;;;6.43;;
77775;SDS011;73554;43.328;6.668;2023-12-20T06:43:52;10.95;;;6.72;;
77775;SDS011;73554;43.328;6.668;2023-12-20T06:49:32;9.27;;;6.30;;
77775;SDS011;73554;43.328;6.668;2023-12-20T06:52:23;12.05;;;7.57;;
77775;SDS011;73554;43.328;6.668;2023-12-20T06:55:07;10.38;;;6.30;;
77775;SDS011;73554;43.328;6.668;2023-12-20T07:05:57;9.65;;;6.22;;
77775;SDS011;73554;43.328;6.668;2023-12-20T07:08:28;10.52;;;6.28;;
77775;SDS011;73554;43.328;6.668;2023-12-20T07:42:21;8.50;;;5.47;;
77775;SDS011;73554;43.328;6.668;2023-12-20T07:45:13;9.98;;;6.45;;
77775;SDS011;73554;43.328;6.668;2023-12-20T07:53:31;8.50;;;5.68;;
77775;SDS011;73554;43.328;6.668;2023-12-20T08:01:44;9.07;;;5.90;;
77775;SDS011;73554;43.328;6.668;2023-12-20T08:04:28;9.95;;;5.78;;
77775;SDS011;73554;43.328;6.668;2023-12-20T08:07:04;11.00;;;6.13;;
77775;SDS011;73554;43.328;6.668;2023-12-20T08:10:04;9.00;;;6.22;;
77775;SDS011;73554;43.328;6.668;2023-12-20T08:13:02;10.43;;;5.28;;
77775;SDS011;73554;43.328;6.668;2023-12-20T08:30:28;9.68;;;5.93;;
77775;SDS011;73554;43.328;6.668;2023-12-20T08:33:00;8.27;;;4.75;;
77775;SDS011;73554;43.328;6.668;2023-12-20T08:35:52;8.40;;;5.22;;
77775;SDS011;73554;43.328;6.668;2023-12-20T08:41:16;10.50;;;6.20;;
77775;SDS011;73554;43.328;6.668;2023-12-20T08:55:41;10.23;;;5.82;;
77775;SDS011;73554;43.328;6.668;2023-12-20T09:01:53;9.23;;;6.28;;
77775;SDS011;73554;43.328;6.668;2023-12-20T09:04:37;8.75;;;5.40;;
77775;SDS011;73554;43.328;6.668;2023-12-20T09:26:29;9.95;;;6.22;;
77775;SDS011;73554;43.328;6.668;2023-12-20T09:32:00;8.82;;;5.60;;
77775;SDS011;73554;43.328;6.668;2023-12-20T09:41:09;5.93;;;3.90;;
77775;SDS011;73554;43.328;6.668;2023-12-20T09:43:43;10.55;;;5.10;;
77775;SDS011;73554;43.328;6.668;2023-12-20T09:46:14;6.95;;;4.57;;
77775;SDS011;73554;43.328;6.668;2023-12-20T09:48:46;6.57;;;4.63;;
77775;SDS011;73554;43.328;6.668;2023-12-20T10:53:04;7.22;;;4.75;;
77775;SDS011;73554;43.328;6.668;2023-12-20T10:55:35;7.40;;;4.35;;
77775;SDS011;73554;43.328;6.668;2023-12-20T10:58:08;7.57;;;4.45;;
77775;SDS011;73554;43.328;6.668;2023-12-20T11:03:15;7.22;;;4.60;;
77775;SDS011;73554;43.328;6.668;2023-12-20T13:27:21;6.70;;;4.45;;
77775;SDS011;73554;43.328;6.668;2023-12-20T13:35:50;6.97;;;4.55;;
77775;SDS011;73554;43.328;6.668;2023-12-20T13:38:29;6.10;;;4.38;;
77775;SDS011;73554;43.328;6.668;2023-12-20T14:13:00;7.57;;;4.35;;
77775;SDS011;73554;43.328;6.668;2023-12-20T14:32:03;8.52;;;4.93;;
77775;SDS011;73554;43.328;6.668;2023-12-20T14:35:01;7.40;;;4.40;;
77775;SDS011;73554;43.328;6.668;2023-12-20T15:02:55;6.65;;;4.28;;
77775;SDS011;73554;43.328;6.668;2023-12-20T15:05:43;6.75;;;4.68;;
77775;SDS011;73554;43.328;6.668;2023-12-20T15:08:38;6.78;;;4.18;;
77775;SDS011;73554;43.328;6.668;2023-12-20T15:14:02;6.22;;;4.25;;
77775;SDS011;73554;43.328;6.668;2023-12-20T15:16:34;8.05;;;4.78;;
77775;SDS011;73554;43.328;6.668;2023-12-20T15:38:40;7.63;;;4.82;;
77775;SDS011;73554;43.328;6.668;2023-12-20T15:41:34;6.93;;;4.95;;
77775;SDS011;73554;43.328;6.668;2023-12-20T15:57:02;7.10;;;5.18;;
77775;SDS011;73554;43.328;6.668;2023-12-20T17:57:21;6.90;;;4.30;;
77775;SDS011;73554;43.328;6.668;2023-12-20T19:06:24;2.80;;;1.20;;
77775;SDS011;73554;43.328;6.668;2023-12-20T19:09:04;4.63;;;1.45;;
77775;SDS011;73554;43.328;6.668;2023-12-20T19:11:35;3.83;;;1.40;;
77775;SDS011;73554;43.328;6.668;2023-12-20T19:14:01;4.03;;;1.40;;
77775;SDS011;73554;43.328;6.668;2023-12-20T19:16:27;4.00;;;1.77;;
77775;SDS011;73554;43.328;6.668;2023-12-20T19:18:53;3.60;;;1.63;;
77775;SDS011;73554;43.328;6.668;2023-12-20T19:21:25;3.92;;;1.50;;
77775;SDS011;73554;43.328;6.668;2023-12-20T19:23:59;3.65;;;1.70;;
77775;SDS011;73554;43.328;6.668;2023-12-20T19:26:24;3.30;;;1.20;;
77775;SDS011;73554;43.328;6.668;2023-12-20T19:28:56;3.30;;;1.30;;
77775;SDS011;73554;43.328;6.668;2023-12-20T19:31:21;3.10;;;1.77;;
77775;SDS011;73554;43.328;6.668;2023-12-20T19:33:47;4.22;;;1.98;;
77775;SDS011;73554;43.328;6.668;2023-12-20T19:36:24;4.03;;;1.40;;
77775;SDS011;73554;43.328;6.668;2023-12-20T19:38:55;2.75;;;1.42;;
77775;SDS011;73554;43.328;6.668;2023-12-20T19:41:27;4.20;;;1.88;;
77775;SDS011;73554;43.328;6.668;2023-12-20T19:43:53;4.20;;;1.58;;
77775;SDS011;73554;43.328;6.668;2023-12-20T19:46:24;3.63;;;1.38;;
77775;SDS011;73554;43.328;6.668;2023-12-20T19:48:56;4.22;;;2.10;;
77775;SDS011;73554;43.328;6.668;2023-12-20T19:51:28;3.83;;;1.40;;
77775;SDS011;73554;43.328;6.668;2023-12-20T19:53:59;3.90;;;1.42;;
77775;SDS011;73554;43.328;6.668;2023-12-20T19:56:31;4.03;;;1.60;;
77775;SDS011;73554;43.328;6.668;2023-12-20T19:59:03;9.07;;;2.25;;
77775;SDS011;73554;43.328;6.668;2023-12-20T20:01:35;7.03;;;2.83;;
77775;SDS011;73554;43.328;6.668;2023-12-20T20:04:07;5.00;;;1.90;;
77775;SDS011;73554;43.328;6.668;2023-12-20T20:06:40;4.18;;;2.28;;
77775;SDS011;73554;43.328;6.668;2023-12-20T20:09:12;4.28;;;1.67;;
77775;SDS011;73554;43.328;6.668;2023-12-20T20:11:45;3.67;;;1.60;;
77775;SDS011;73554;43.328;6.668;2023-12-20T20:14:17;3.92;;;1.60;;
77775;SDS011;73554;43.328;6.668;2023-12-20T20:16:48;3.83;;;1.58;;
77775;SDS011;73554;43.328;6.668;2023-12-20T20:19:20;3.55;;;1.38;;
77775;SDS011;73554;43.328;6.668;2023-12-20T20:21:52;3.05;;;1.50;;
77775;SDS011;73554;43.328;6.668;2023-12-20T20:24:23;2.97;;;1.42;;
77775;SDS011;73554;43.328;6.668;2023-12-20T20:26:54;2.65;;;1.25;;
77775;SDS011;73554;43.328;6.668;2023-12-20T20:29:27;3.55;;;1.40;;
77775;SDS011;73554;43.328;6.668;2023-12-20T20:31:58;3.70;;;1.50;;
77775;SDS011;73554;43.328;6.668;2023-12-20T20:36:59;2.65;;;1.10;;
77775;SDS011;73554;43.328;6.668;2023-12-20T20:39:31;2.50;;;1.17;;
77775;SDS011;73554;43.328;6.668;2023-12-20T20:42:04;2.90;;;1.13;;
77775;SDS011;73554;43.328;6.668;2023-12-20T20:44:36;2.63;;;1.13;;
77775;SDS011;73554;43.328;6.668;2023-12-20T20:47:10;2.80;;;1.05;;
77775;SDS011;73554;43.328;6.668;2023-12-20T20:52:06;4.03;;;1.50;;
77775;SDS011;73554;43.328;6.668;2023-12-20T20:54:38;3.22;;;1.35;;
77775;SDS011;73554;43.328;6.668;2023-12-20T20:57:10;2.75;;;1.10;;
77775;SDS011;73554;43.328;6.668;2023-12-20T20:59:43;3.13;;;1.40;;
77775;SDS011;73554;43.328;6.668;2023-12-20T21:02:12;2.45;;;1.30;;
77775;SDS011;73554;43.328;6.668;2023-12-20T21:07:09;2.67;;;1.15;;
77775;SDS011;73554;43.328;6.668;2023-12-20T21:09:41;2.60;;;1.00;;
77775;SDS011;73554;43.328;6.668;2023-12-20T21:12:12;3.03;;;1.42;;
77775;SDS011;73554;43.328;6.668;2023-12-20T21:14:52;3.05;;;1.33;;
77775;SDS011;73554;43.328;6.668;2023-12-20T21:17:26;3.40;;;1.45;;
77775;SDS011;73554;43.328;6.668;2023-12-20T21:22:23;3.05;;;1.08;;
77775;SDS011;73554;43.328;6.668;2023-12-20T21:24:54;2.75;;;1.15;;
77775;SDS011;73554;43.328;6.668;2023-12-20T21:27:25;2.50;;;1.10;;
77775;SDS011;73554;43.328;6.668;2023-12-20T21:29:57;2.85;;;1.00;;
77775;SDS011;73554;43.328;6.668;2023-12-20T21:32:28;3.42;;;1.27;;
77775;SDS011;73554;43.328;6.668;2023-12-20T21:35:03;4.40;;;1.42;;
77775;SDS011;73554;43.328;6.668;2023-12-20T21:39:53;3.00;;;1.10;;
77775;SDS011;73554;43.328;6.668;2023-12-20T21:42:27;3.22;;;1.20;;
77775;SDS011;73554;43.328;6.668;2023-12-20T21:47:31;3.60;;;1.20;;
77775;SDS011;73554;43.328;6.668;2023-12-20T21:49:56;3.35;;;1.30;;
77775;SDS011;73554;43.328;6.668;2023-12-20T21:52:29;3.55;;;1.02;;
77775;SDS011;73554;43.328;6.668;2023-12-20T21:55:00;2.85;;;1.15;;
77775;SDS011;73554;43.328;6.668;2023-12-20T21:57:32;4.72;;;1.63;;
77775;SDS011;73554;43.328;6.668;2023-12-20T22:00:05;3.25;;;1.50;;
77775;SDS011;73554;43.328;6.668;2023-12-20T22:02:36;4.45;;;1.35;;
77775;SDS011;73554;43.328;6.668;2023-12-20T22:05:08;2.97;;;1.10;;
77775;SDS011;73554;43.328;6.668;2023-12-20T22:07:42;2.67;;;1.02;;
77775;SDS011;73554;43.328;6.668;2023-12-20T22:10:13;3.83;;;1.25;;
77775;SDS011;73554;43.328;6.668;2023-12-20T22:12:45;4.18;;;1.80;;
77775;SDS011;73554;43.328;6.668;2023-12-20T22:15:16;2.00;;;0.98;;
77775;SDS011;73554;43.328;6.668;2023-12-20T22:17:48;4.03;;;1.38;;
77775;SDS011;73554;43.328;6.668;2023-12-20T22:20:20;3.00;;;1.45;;
77775;SDS011;73554;43.328;6.668;2023-12-20T22:22:53;2.55;;;1.00;;
77775;SDS011;73554;43.328;6.668;2023-12-20T22:30:15;3.95;;;1.30;;
77775;SDS011;73554;43.328;6.668;2023-12-20T22:33:00;3.20;;;1.27;;
77775;SDS011;73554;43.328;6.668;2023-12-20T22:35:25;2.35;;;0.90;;
77775;SDS011;73554;43.328;6.668;2023-12-20T22:37:56;2.90;;;1.10;;
77775;SDS011;73554;43.328;6.668;2023-12-20T22:40:24;2.83;;;1.05;;
77775;SDS011;73554;43.328;6.668;2023-12-20T22:45:35;2.20;;;0.93;;
77775;SDS011;73554;43.328;6.668;2023-12-20T22:50:33;2.22;;;1.00;;
77775;SDS011;73554;43.328;6.668;2023-12-20T22:53:05;3.80;;;1.10;;
77775;SDS011;73554;43.328;6.668;2023-12-20T22:58:02;2.97;;;1.20;;
77775;SDS011;73554;43.328;6.668;2023-12-20T23:03:01;3.30;;;1.40;;
77775;SDS011;73554;43.328;6.668;2023-12-20T23:05:30;2.30;;;0.93;;
77775;SDS011;73554;43.328;6.668;2023-12-20T23:08:01;2.78;;;1.35;;
77775;SDS011;73554;43.328;6.668;2023-12-20T23:10:33;2.65;;;0.93;;
77775;SDS011;73554;43.328;6.668;2023-12-20T23:13:05;3.75;;;1.27;;
77775;SDS011;73554;43.328;6.668;2023-12-20T23:15:33;2.92;;;1.52;;
77775;SDS011;73554;43.328;6.668;2023-12-20T23:18:05;3.17;;;1.40;;
77775;SDS011;73554;43.328;6.668;2023-12-20T23:20:31;2.20;;;1.00;;
77775;SDS011;73554;43.328;6.668;2023-12-20T23:22:56;2.97;;;1.60;;
77775;SDS011;73554;43.328;6.668;2023-12-20T23:25:28;2.45;;;0.90;;
77775;SDS011;73554;43.328;6.668;2023-12-20T23:27:53;2.90;;;0.95;;
77775;SDS011;73554;43.328;6.668;2023-12-20T23:30:26;2.70;;;1.00;;
77775;SDS011;73554;43.328;6.668;2023-12-20T23:32:58;5.13;;;1.27;;
77775;SDS011;73554;43.328;6.668;2023-12-20T23:35:30;2.20;;;1.00;;
77775;SDS011;73554;43.328;6.668;2023-12-20T23:38:03;3.22;;;1.17;;
77775;SDS011;73554;43.328;6.668;2023-12-20T23:40:35;3.03;;;1.10;;
77775;SDS011;73554;43.328;6.668;2023-12-20T23:45:32;3.58;;;1.20;;
77775;SDS011;73554;43.328;6.668;2023-12-20T23:48:05;3.40;;;0.98;;
77775;SDS011;73554;43.328;6.668;2023-12-20T23:50:36;2.80;;;1.17;;
77775;SDS011;73554;43.328;6.668;2023-12-20T23:53:08;2.95;;;1.10;;
77775;SDS011;73554;43.328;6.668;2023-12-20T23:55:34;2.95;;;1.35;;
77775;SDS011;73554;43.328;6.668;2023-12-20T23:58:05;2.33;;;1.15;;
